This is the latest recevied weather packets stored in our database for station/object HP1CDW-13. If no packets are shown the sender has not sent any weather packets the latest 10 day(s).
| Time | Temp. | Humidity | Pressure | Rain* | Wind** | Luminosity | Snow |
|---|---|---|---|---|---|---|---|
| 1778159090 | 28.89° C | 79% | 1014.6 hPa | 0 mm | - | - | - |
| 1778158490 | 28.89° C | 81% | 1014.7 hPa | 0 mm | - | - | - |
| 1778157890 | 28.33° C | 83% | 1014.9 hPa | 0 mm | - | - | - |
| 1778157290 | 28.33° C | 85% | 1014.7 hPa | 0 mm | - | - | - |
| 1778156690 | 27.78° C | 87% | 1014.9 hPa | 0 mm | - | - | - |
| 1778156090 | 26.67° C | 90% | 1015 hPa | 0 mm | - | - | - |
| 1778155490 | 26.11° C | 96% | 1014.6 hPa | 0 mm | - | - | - |
| 1778154890 | 25.56° C | 97% | 1014.4 hPa | 0 mm | - | - | - |
| 1778154290 | 25° C | 98% | 1014.4 hPa | 0 mm | - | - | - |
| 1778153690 | 25° C | 98% | 1014.2 hPa | 0 mm | - | - | - |
| 1778153090 | 25° C | 98% | 1014.3 hPa | 0 mm | - | - | - |
| 1778152490 | 24.44° C | 98% | 1013.9 hPa | 0 mm | - | - | - |
| 1778151890 | 25° C | 98% | 1014.1 hPa | 0 mm | - | - | - |
| 1778151290 | 25° C | 98% | 1013.9 hPa | 0 mm | - | - | - |
| 1778150690 | 25° C | 98% | 1013.6 hPa | 0 mm | - | - | - |
| 1778150090 | 25° C | 98% | 1013.6 hPa | 0 mm | - | - | - |
| 1778149490 | 25° C | 97% | 1013.6 hPa | 0 mm | - | - | - |
| 1778148890 | 25° C | 97% | 1013.9 hPa | 0 mm | - | - | - |
| 1778148290 | 25° C | 97% | 1013.6 hPa | 0 mm | - | - | - |
| 1778147690 | 25° C | 97% | 1013.5 hPa | 0 mm | - | - | - |
| 1778147090 | 25.56° C | 96% | 1013.4 hPa | 0 mm | - | - | - |
| 1778146490 | 25.56° C | 96% | 1013.4 hPa | 0 mm | - | - | - |
| 1778145890 | 25.56° C | 96% | 1013.5 hPa | 0 mm | - | - | - |
| 1778145290 | 25.56° C | 96% | 1013.4 hPa | 0 mm | - | - | - |
| 1778144690 | 25.56° C | 96% | 1013.4 hPa | 0 mm | - | - | - |
* Rain latest hour (hover to see other rain measurements)
** Current wind speed in m/s (hover to see current wind gust speed)